createdAt,value
2017-04-22T00:00:40.963Z,0
2017-04-22T00:01:41.536Z,0
2017-04-22T00:02:42.112Z,0
2017-04-22T00:03:42.684Z,0
2017-04-22T00:04:43.258Z,0
2017-04-22T00:05:43.831Z,0
2017-04-22T00:06:44.404Z,0
2017-04-22T00:07:44.979Z,0
2017-04-22T00:08:45.550Z,0
2017-04-22T00:09:46.122Z,0
2017-04-22T00:10:46.695Z,0
2017-04-22T00:11:47.272Z,0
2017-04-22T00:12:47.860Z,0
2017-04-22T00:13:48.431Z,0
2017-04-22T00:14:49.004Z,0
2017-04-22T00:15:49.578Z,0
2017-04-22T00:16:50.155Z,0
2017-04-22T00:17:50.727Z,0
2017-04-22T00:18:51.302Z,0
2017-04-22T00:19:51.874Z,0
2017-04-22T00:20:52.449Z,0
2017-04-22T00:21:53.021Z,0
2017-04-22T00:22:53.595Z,0
2017-04-22T00:23:54.168Z,0
2017-04-22T00:24:54.741Z,0
2017-04-22T00:25:55.312Z,0
2017-04-22T00:26:55.884Z,0
2017-04-22T00:27:56.456Z,0
2017-04-22T00:28:57.028Z,0
2017-04-22T00:29:57.601Z,0
2017-04-22T00:30:58.175Z,0
2017-04-22T00:31:58.749Z,0
2017-04-22T00:32:59.323Z,0
2017-04-22T00:33:59.900Z,0
2017-04-22T00:35:00.469Z,0
2017-04-22T00:36:01.042Z,0
2017-04-22T00:37:01.628Z,0
2017-04-22T00:38:02.201Z,0
2017-04-22T00:39:02.776Z,0
2017-04-22T00:40:03.363Z,0
2017-04-22T00:41:03.937Z,0
2017-04-22T00:42:04.510Z,0
2017-04-22T00:43:05.084Z,0
2017-04-22T00:44:05.659Z,0
2017-04-22T00:45:06.231Z,0
2017-04-22T00:46:06.806Z,0
2017-04-22T00:47:07.378Z,0
2017-04-22T00:48:07.951Z,0
2017-04-22T00:49:08.524Z,0
2017-04-22T00:50:09.095Z,0
2017-04-22T00:51:09.667Z,0
2017-04-22T00:52:10.240Z,0
2017-04-22T00:53:10.812Z,0
2017-04-22T00:54:11.386Z,0
2017-04-22T00:55:11.963Z,0
2017-04-22T00:56:12.549Z,0
2017-04-22T00:57:13.137Z,0
2017-04-22T00:58:13.710Z,0
2017-04-22T00:59:14.282Z,0
2017-04-22T01:00:14.854Z,0
2017-04-22T01:01:15.426Z,0
2017-04-22T01:02:16.001Z,0
2017-04-22T01:03:16.574Z,0
2017-04-22T01:04:17.147Z,0
2017-04-22T01:05:17.721Z,0
2017-04-22T01:06:18.292Z,0
2017-04-22T01:07:18.866Z,0
2017-04-22T01:08:20.851Z,0
2017-04-22T01:09:21.423Z,0
2017-04-22T01:10:22.007Z,0
2017-04-22T01:11:22.578Z,0
2017-04-22T01:12:23.150Z,0
2017-04-22T01:13:23.721Z,0
2017-04-22T01:14:24.294Z,0
2017-04-22T01:15:24.864Z,0
2017-04-22T01:16:25.436Z,0
2017-04-22T01:17:26.049Z,0
2017-04-22T01:18:26.623Z,0
2017-04-22T01:19:27.191Z,0
2017-04-22T01:20:27.763Z,0
2017-04-22T01:21:28.332Z,0
2017-04-22T01:22:28.903Z,0
2017-04-22T01:23:29.474Z,0
2017-04-22T01:24:30.045Z,0
2017-04-22T01:25:30.615Z,0
2017-04-22T01:26:31.187Z,0
2017-04-22T01:27:31.757Z,0
2017-04-22T01:28:32.329Z,0
2017-04-22T01:29:32.913Z,0
2017-04-22T01:30:33.484Z,0
2017-04-22T01:31:34.058Z,0
2017-04-22T01:32:34.640Z,0
2017-04-22T01:33:35.212Z,0
2017-04-22T01:34:35.784Z,0
2017-04-22T01:35:36.356Z,0
2017-04-22T01:36:36.929Z,0
2017-04-22T01:37:37.514Z,0
2017-04-22T01:38:38.086Z,0
2017-04-22T01:39:38.654Z,0
2017-04-22T01:40:39.224Z,0
2017-04-22T01:41:39.808Z,0
2017-04-22T01:42:40.381Z,0
2017-04-22T01:43:40.951Z,0
2017-04-22T01:44:41.522Z,0
2017-04-22T01:45:42.094Z,0
2017-04-22T01:46:42.665Z,0
2017-04-22T01:47:43.237Z,0
2017-04-22T01:48:43.808Z,0
2017-04-22T01:49:44.390Z,0
2017-04-22T01:50:44.964Z,0
2017-04-22T01:51:45.547Z,0
2017-04-22T01:52:46.117Z,0
2017-04-22T01:53:46.688Z,0
2017-04-22T01:54:47.260Z,0
2017-04-22T01:55:47.843Z,0
2017-04-22T01:56:48.412Z,0
2017-04-22T01:57:48.986Z,0
2017-04-22T01:58:49.556Z,0
2017-04-22T01:59:50.128Z,0
2017-04-22T02:00:50.699Z,0
2017-04-22T02:01:51.269Z,0
2017-04-22T02:02:51.841Z,0
2017-04-22T02:03:52.413Z,0
2017-04-22T02:04:52.985Z,0
2017-04-22T02:05:53.553Z,0
2017-04-22T02:06:54.123Z,0
2017-04-22T02:07:54.693Z,0
2017-04-22T02:08:55.265Z,0
2017-04-22T02:09:55.835Z,0
2017-04-22T02:10:56.404Z,0
2017-04-22T02:11:56.974Z,0
2017-04-22T02:12:57.544Z,0
2017-04-22T02:13:58.116Z,0
2017-04-22T02:14:58.686Z,0
2017-04-22T02:15:59.257Z,0
2017-04-22T02:16:59.828Z,0
2017-04-22T02:18:00.399Z,0
2017-04-22T02:19:00.969Z,0
2017-04-22T02:20:01.541Z,0
2017-04-22T02:21:02.110Z,0
2017-04-22T02:22:02.694Z,0
2017-04-22T02:23:03.266Z,0
2017-04-22T02:24:03.836Z,0
2017-04-22T02:25:04.409Z,0
2017-04-22T02:26:04.979Z,0
2017-04-22T02:27:05.551Z,0
2017-04-22T02:28:06.121Z,0
2017-04-22T02:29:06.692Z,0
2017-04-22T02:30:07.263Z,0
2017-04-22T02:31:07.835Z,0
2017-04-22T02:32:08.404Z,0
2017-04-22T02:33:08.974Z,0
2017-04-22T02:34:09.544Z,0
2017-04-22T02:35:10.116Z,0
2017-04-22T02:36:10.692Z,0
2017-04-22T02:37:11.257Z,0
2017-04-22T02:38:11.827Z,0
2017-04-22T02:39:12.398Z,0
2017-04-22T02:40:12.969Z,0
2017-04-22T02:41:13.540Z,0
2017-04-22T02:42:14.109Z,0
2017-04-22T02:43:14.680Z,0
2017-04-22T02:44:15.253Z,0
2017-04-22T02:45:15.823Z,0
2017-04-22T02:46:16.393Z,0
2017-04-22T02:47:16.963Z,0
2017-04-22T02:48:17.533Z,0
2017-04-22T02:49:18.105Z,0
2017-04-22T02:50:18.675Z,0
2017-04-22T02:51:19.245Z,0
2017-04-22T02:52:19.814Z,0
2017-04-22T02:53:20.386Z,0
2017-04-22T02:54:20.956Z,0
2017-04-22T02:55:21.525Z,0
2017-04-22T02:56:22.094Z,0
2017-04-22T02:57:22.663Z,0
2017-04-22T02:58:23.235Z,0
2017-04-22T02:59:23.820Z,0
2017-04-22T03:00:24.393Z,0
2017-04-22T03:01:24.964Z,0
2017-04-22T03:02:25.538Z,0
2017-04-22T03:03:26.120Z,0
2017-04-22T03:04:26.690Z,0
2017-04-22T03:05:27.262Z,0
2017-04-22T03:06:27.833Z,0
2017-04-22T03:07:28.417Z,0
2017-04-22T03:08:28.990Z,0
2017-04-22T03:09:29.561Z,0
2017-04-22T03:10:30.133Z,0
2017-04-22T03:11:30.704Z,0
2017-04-22T03:12:31.275Z,0
2017-04-22T03:13:31.846Z,0
2017-04-22T03:14:32.419Z,0
2017-04-22T03:15:32.989Z,0
2017-04-22T03:16:33.560Z,0
2017-04-22T03:17:34.143Z,0
2017-04-22T03:18:34.713Z,0
2017-04-22T03:19:35.285Z,0
2017-04-22T03:20:35.870Z,0
2017-04-22T03:21:36.439Z,0
2017-04-22T03:22:37.010Z,0
2017-04-22T03:23:37.581Z,0
2017-04-22T03:24:38.152Z,0
2017-04-22T03:25:38.726Z,0
2017-04-22T03:26:39.297Z,0
2017-04-22T03:27:39.869Z,0
2017-04-22T03:28:40.451Z,0
2017-04-22T03:29:41.023Z,0
2017-04-22T03:30:41.605Z,0
2017-04-22T03:31:42.211Z,0
2017-04-22T03:32:42.781Z,0
2017-04-22T03:33:43.353Z,0
2017-04-22T03:34:43.924Z,0
2017-04-22T03:35:44.496Z,0
2017-04-22T03:36:45.066Z,0
2017-04-22T03:37:45.639Z,0
2017-04-22T03:38:46.209Z,0
2017-04-22T03:39:46.865Z,0
2017-04-22T03:40:47.435Z,0
2017-04-22T03:41:48.007Z,0
2017-04-22T03:42:48.579Z,0
2017-04-22T03:43:49.151Z,0
2017-04-22T03:44:49.720Z,0
2017-04-22T03:45:50.302Z,0
2017-04-22T03:46:50.876Z,0
2017-04-22T03:47:51.444Z,0
2017-04-22T03:48:52.145Z,0
2017-04-22T03:49:52.714Z,0
2017-04-22T03:50:53.286Z,0
2017-04-22T03:51:53.856Z,0
2017-04-22T03:52:54.428Z,0
2017-04-22T03:53:54.998Z,0
2017-04-22T03:54:55.584Z,0
2017-04-22T03:55:56.155Z,0
2017-04-22T03:56:56.726Z,0
2017-04-22T03:57:57.299Z,0
2017-04-22T03:58:57.953Z,0
2017-04-22T03:59:58.526Z,0
2017-04-22T04:00:59.097Z,0
2017-04-22T04:01:59.673Z,4
2017-04-22T04:03:00.240Z,0
2017-04-22T04:04:00.810Z,0
2017-04-22T04:05:01.394Z,0
2017-04-22T04:06:01.964Z,4
2017-04-22T04:07:02.536Z,4
2017-04-22T04:08:03.106Z,4
2017-04-22T04:09:03.677Z,0
2017-04-22T04:10:04.248Z,4
2017-04-22T04:11:04.830Z,4
2017-04-22T04:12:05.414Z,4
2017-04-22T04:13:05.984Z,4
2017-04-22T04:14:06.555Z,4
2017-04-22T04:15:07.125Z,4
2017-04-22T04:16:07.696Z,4
2017-04-22T04:17:08.265Z,4
2017-04-22T04:18:08.836Z,8
2017-04-22T04:19:09.406Z,8
2017-04-22T04:20:09.976Z,4
2017-04-22T04:21:10.545Z,8
2017-04-22T04:22:11.114Z,8
2017-04-22T04:23:11.685Z,12
2017-04-22T04:24:12.259Z,12
2017-04-22T04:25:12.830Z,16
2017-04-22T04:26:13.414Z,16
2017-04-22T04:27:13.987Z,16
2017-04-22T04:28:14.558Z,16
2017-04-22T04:29:15.130Z,20
2017-04-22T04:30:15.701Z,20
2017-04-22T04:31:16.272Z,20
2017-04-22T04:32:16.844Z,24
2017-04-22T04:33:17.415Z,24
2017-04-22T04:34:17.988Z,32
2017-04-22T04:35:18.561Z,32
2017-04-22T04:36:19.133Z,32
2017-04-22T04:37:19.706Z,40
2017-04-22T04:38:20.281Z,44
2017-04-22T04:39:20.850Z,48
2017-04-22T04:40:21.423Z,52
2017-04-22T04:41:21.992Z,56
2017-04-22T04:42:22.564Z,56
2017-04-22T04:43:23.135Z,56
2017-04-22T04:44:23.706Z,56
2017-04-22T04:45:24.278Z,56
2017-04-22T04:46:24.863Z,56
2017-04-22T04:47:25.435Z,60
2017-04-22T04:48:26.004Z,60
2017-04-22T04:49:26.574Z,60
2017-04-22T04:50:27.144Z,60
2017-04-22T04:51:27.716Z,68
2017-04-22T04:52:28.288Z,72
2017-04-22T04:53:28.864Z,76
2017-04-22T04:54:29.512Z,80
2017-04-22T04:55:30.082Z,88
2017-04-22T04:56:30.667Z,92
2017-04-22T04:57:31.242Z,104
2017-04-22T04:58:31.813Z,120
2017-04-22T04:59:32.385Z,128
2017-04-22T05:00:32.957Z,136
2017-04-22T05:01:33.530Z,144
2017-04-22T05:02:34.103Z,144
2017-04-22T05:03:34.677Z,148
2017-04-22T05:04:35.249Z,152
2017-04-22T05:05:35.822Z,168
2017-04-22T05:06:36.393Z,184
2017-04-22T05:07:36.965Z,188
2017-04-22T05:08:37.537Z,176
2017-04-22T05:09:38.109Z,200
2017-04-22T05:10:38.681Z,212
2017-04-22T05:11:39.255Z,220
2017-04-22T05:12:39.830Z,196
2017-04-22T05:13:40.402Z,188
2017-04-22T05:14:40.977Z,184
2017-04-22T05:15:41.548Z,188
2017-04-22T05:16:42.120Z,188
2017-04-22T05:17:42.692Z,184
2017-04-22T05:18:43.277Z,184
2017-04-22T05:19:43.849Z,188
2017-04-22T05:20:44.420Z,196
2017-04-22T05:21:44.993Z,196
2017-04-22T05:22:45.578Z,204
2017-04-22T05:23:46.150Z,204
2017-04-22T05:24:46.722Z,208
2017-04-22T05:25:47.295Z,208
2017-04-22T05:26:47.866Z,208
2017-04-22T05:27:48.450Z,212
2017-04-22T05:28:49.023Z,212
2017-04-22T05:29:49.594Z,212
2017-04-22T05:30:50.165Z,220
2017-04-22T05:31:50.818Z,232
2017-04-22T05:32:51.390Z,248
2017-04-22T05:33:51.962Z,260
2017-04-22T05:34:52.538Z,276
2017-04-22T05:35:53.112Z,276
2017-04-22T05:36:53.689Z,284
2017-04-22T05:37:54.260Z,280
2017-04-22T05:38:54.846Z,296
2017-04-22T05:39:55.420Z,328
2017-04-22T05:40:56.009Z,324
2017-04-22T05:41:56.596Z,336
2017-04-22T05:42:57.168Z,340
2017-04-22T05:43:57.742Z,344
2017-04-22T05:44:58.315Z,344
2017-04-22T05:45:58.889Z,348
2017-04-22T05:46:59.463Z,360
2017-04-22T05:48:00.037Z,364
2017-04-22T05:49:00.612Z,376
2017-04-22T05:50:01.184Z,380
2017-04-22T05:51:01.762Z,388
2017-04-22T05:52:02.332Z,396
2017-04-22T05:53:02.905Z,408
2017-04-22T05:54:03.489Z,408
2017-04-22T05:55:04.063Z,412
2017-04-22T05:56:04.636Z,416
2017-04-22T05:57:05.267Z,420
2017-04-22T05:58:05.844Z,424
2017-04-22T05:59:06.431Z,428
2017-04-22T06:00:07.004Z,432
2017-04-22T06:01:07.580Z,436
2017-04-22T06:02:08.152Z,440
2017-04-22T06:03:08.726Z,444
2017-04-22T06:04:09.298Z,444
2017-04-22T06:05:09.872Z,452
2017-04-22T06:06:10.449Z,464
2017-04-22T06:07:11.021Z,476
2017-04-22T06:08:11.595Z,476
2017-04-22T06:09:12.168Z,480
2017-04-22T06:10:12.744Z,488
2017-04-22T06:11:13.328Z,492
2017-04-22T06:12:13.902Z,500
2017-04-22T06:13:14.476Z,496
2017-04-22T06:14:15.052Z,532
2017-04-22T06:15:15.625Z,512
2017-04-22T06:16:16.198Z,588
2017-04-22T06:17:16.771Z,596
2017-04-22T06:18:17.344Z,588
2017-04-22T06:19:17.918Z,508
2017-04-22T06:20:18.491Z,472
2017-04-22T06:21:19.067Z,544
2017-04-22T06:22:19.639Z,384
2017-04-22T06:23:20.214Z,368
2017-04-22T06:24:20.786Z,536
2017-04-22T06:25:21.359Z,376
2017-04-22T06:26:21.935Z,384
2017-04-22T06:27:22.508Z,376
2017-04-22T06:28:23.084Z,384
2017-04-22T06:29:23.658Z,388
2017-04-22T06:30:24.230Z,384
2017-04-22T06:31:24.803Z,412
2017-04-22T06:32:25.426Z,544
2017-04-22T06:33:26.001Z,496
2017-04-22T06:34:26.575Z,540
2017-04-22T06:35:27.148Z,424
2017-04-22T06:36:27.723Z,372
2017-04-22T06:37:28.310Z,372
2017-04-22T06:38:28.883Z,600
2017-04-22T06:39:29.459Z,484
2017-04-22T06:40:30.032Z,528
2017-04-22T06:41:30.606Z,588
2017-04-22T06:42:31.179Z,616
2017-04-22T06:43:31.754Z,432
2017-04-22T06:44:32.330Z,380
2017-04-22T06:45:32.904Z,408
2017-04-22T06:46:33.477Z,452
2017-04-22T06:47:34.051Z,500
2017-04-22T06:48:34.624Z,700
2017-04-22T06:49:35.210Z,704
2017-04-22T06:50:35.785Z,552
2017-04-22T06:51:36.358Z,444
2017-04-22T06:52:36.934Z,420
2017-04-22T06:53:37.506Z,424
2017-04-22T06:54:38.081Z,448
2017-04-22T06:55:38.654Z,496
2017-04-22T06:56:39.241Z,688
2017-04-22T06:57:39.814Z,476
2017-04-22T06:58:40.389Z,400
2017-04-22T06:59:40.962Z,392
2017-04-22T07:00:41.538Z,412
2017-04-22T07:01:42.111Z,428
2017-04-22T07:02:42.688Z,408
2017-04-22T07:03:43.262Z,392
2017-04-22T07:04:43.834Z,384
2017-04-22T07:05:44.410Z,384
2017-04-22T07:06:44.985Z,392
2017-04-22T07:07:45.560Z,504
2017-04-22T07:08:46.147Z,656
2017-04-22T07:09:46.719Z,664
2017-04-22T07:10:47.295Z,680
2017-04-22T07:11:47.868Z,720
2017-04-22T07:12:48.440Z,724
2017-04-22T07:13:49.014Z,604
2017-04-22T07:14:49.594Z,636
2017-04-22T07:15:50.171Z,608
2017-04-22T07:16:50.741Z,612
2017-04-22T07:17:51.313Z,624
2017-04-22T07:18:51.889Z,580
2017-04-22T07:19:52.465Z,572
2017-04-22T07:20:53.038Z,560
2017-04-22T07:21:53.611Z,632
2017-04-22T07:22:54.184Z,636
2017-04-22T07:23:54.758Z,708
2017-04-22T07:24:55.332Z,696
2017-04-22T07:25:55.908Z,632
2017-04-22T07:26:56.482Z,564
2017-04-22T07:27:57.056Z,484
2017-04-22T07:28:57.630Z,464
2017-04-22T07:29:58.218Z,484
2017-04-22T07:30:58.791Z,588
2017-04-22T07:31:59.378Z,712
2017-04-22T07:32:59.953Z,464
2017-04-22T07:34:00.525Z,484
2017-04-22T07:35:01.158Z,452
2017-04-22T07:36:01.732Z,444
2017-04-22T07:37:02.318Z,448
2017-04-22T07:38:02.893Z,484
2017-04-22T07:39:03.467Z,784
2017-04-22T07:40:04.041Z,792
2017-04-22T07:41:04.616Z,776
2017-04-22T07:42:05.189Z,648
2017-04-22T07:43:05.764Z,800
2017-04-22T07:44:06.338Z,816
2017-04-22T07:45:06.912Z,828
2017-04-22T07:46:07.488Z,848
2017-04-22T07:47:08.062Z,904
2017-04-22T07:48:08.637Z,956
2017-04-22T07:49:09.210Z,856
2017-04-22T07:50:09.785Z,836
2017-04-22T07:51:10.362Z,716
2017-04-22T07:52:10.940Z,548
2017-04-22T07:53:11.512Z,624
2017-04-22T07:54:12.087Z,880
2017-04-22T07:55:12.661Z,784
2017-04-22T07:56:13.237Z,532
2017-04-22T07:57:13.812Z,520
2017-04-22T07:58:14.389Z,812
2017-04-22T07:59:14.966Z,544
2017-04-22T08:00:15.536Z,568
2017-04-22T08:01:16.123Z,732
2017-04-22T08:02:16.697Z,780
2017-04-22T08:03:17.273Z,488
2017-04-22T08:04:17.850Z,688
2017-04-22T08:05:18.436Z,496
2017-04-22T08:06:19.010Z,872
2017-04-22T08:07:19.586Z,796
2017-04-22T08:08:20.161Z,812
2017-04-22T08:09:20.735Z,560
2017-04-22T08:10:21.314Z,944
2017-04-22T08:11:21.889Z,1012
2017-04-22T08:12:22.465Z,688
2017-04-22T08:13:23.039Z,668
2017-04-22T08:14:23.627Z,656
2017-04-22T08:15:24.215Z,656
2017-04-22T08:16:24.791Z,708
2017-04-22T08:17:25.365Z,764
2017-04-22T08:18:25.939Z,796
2017-04-22T08:19:26.513Z,744
2017-04-22T08:20:27.086Z,676
2017-04-22T08:21:27.661Z,572
2017-04-22T08:22:28.236Z,496
2017-04-22T08:23:28.811Z,472
2017-04-22T08:24:29.387Z,480
2017-04-22T08:25:29.961Z,492
2017-04-22T08:26:30.537Z,532
2017-04-22T08:27:31.115Z,556
2017-04-22T08:28:31.702Z,536
2017-04-22T08:29:32.278Z,540
2017-04-22T08:30:32.852Z,612
2017-04-22T08:31:33.426Z,672
2017-04-22T08:32:34.000Z,668
2017-04-22T08:33:34.575Z,620
2017-04-22T08:34:35.151Z,588
2017-04-22T08:35:35.724Z,552
2017-04-22T08:36:36.299Z,508
2017-04-22T08:37:36.873Z,500
2017-04-22T08:38:37.450Z,504
2017-04-22T08:39:38.024Z,516
2017-04-22T08:40:38.599Z,932
2017-04-22T08:41:39.174Z,904
2017-04-22T08:42:39.747Z,916
2017-04-22T08:43:40.322Z,932
2017-04-22T08:44:40.911Z,936
2017-04-22T08:45:41.484Z,944
2017-04-22T08:46:42.058Z,980
2017-04-22T08:47:43.629Z,1040
2017-04-22T08:48:44.219Z,1048
2017-04-22T08:49:44.792Z,1008
2017-04-22T08:50:45.366Z,1000
2017-04-22T08:51:45.945Z,1012
2017-04-22T08:52:46.523Z,1016
2017-04-22T08:53:47.108Z,1068
2017-04-22T08:54:47.685Z,1128
2017-04-22T08:55:48.265Z,1100
2017-04-22T08:56:48.851Z,1056
2017-04-22T08:57:49.425Z,588
2017-04-22T08:58:50.000Z,560
2017-04-22T08:59:50.576Z,520
2017-04-22T09:00:51.153Z,516
2017-04-22T09:01:51.727Z,528
2017-04-22T09:02:52.301Z,940
2017-04-22T09:03:52.876Z,948
2017-04-22T09:04:53.449Z,944
2017-04-22T09:05:54.025Z,956
2017-04-22T09:06:54.599Z,960
2017-04-22T09:07:55.176Z,952
2017-04-22T09:08:55.752Z,944
2017-04-22T09:09:56.326Z,956
2017-04-22T09:10:56.902Z,972
2017-04-22T09:11:57.482Z,996
2017-04-22T09:12:58.056Z,1036
2017-04-22T09:13:58.631Z,1104
2017-04-22T09:14:59.217Z,1112
2017-04-22T09:15:59.785Z,1080
2017-04-22T09:17:00.358Z,608
2017-04-22T09:18:00.936Z,656
2017-04-22T09:19:01.514Z,1208
2017-04-22T09:20:02.088Z,1196
2017-04-22T09:21:02.667Z,1160
2017-04-22T09:22:03.242Z,680
2017-04-22T09:23:03.817Z,748
2017-04-22T09:24:04.408Z,1088
2017-04-22T09:25:04.982Z,800
2017-04-22T09:26:05.558Z,1268
2017-04-22T09:27:06.135Z,1180
2017-04-22T09:28:06.713Z,1308
2017-04-22T09:29:07.290Z,1088
2017-04-22T09:30:07.866Z,1396
2017-04-22T09:31:08.444Z,1364
2017-04-22T09:32:09.021Z,940
2017-04-22T09:33:09.598Z,892
2017-04-22T09:34:10.173Z,908
2017-04-22T09:35:10.748Z,940
2017-04-22T09:36:11.323Z,944
2017-04-22T09:37:11.901Z,920
2017-04-22T09:38:12.476Z,888
2017-04-22T09:39:13.052Z,840
2017-04-22T09:40:13.628Z,832
2017-04-22T09:41:14.203Z,800
2017-04-22T09:42:14.792Z,880
2017-04-22T09:43:15.365Z,884
2017-04-22T09:44:15.941Z,1036
2017-04-22T09:45:16.517Z,836
2017-04-22T09:46:17.092Z,868
2017-04-22T09:47:17.670Z,1172
2017-04-22T09:48:18.247Z,1052
2017-04-22T09:49:18.823Z,672
2017-04-22T09:50:19.400Z,664
2017-04-22T09:51:19.975Z,664
2017-04-22T09:52:20.552Z,668
2017-04-22T09:53:21.127Z,704
2017-04-22T09:54:21.702Z,672
2017-04-22T09:55:22.280Z,632
2017-04-22T09:56:22.856Z,584
2017-04-22T09:57:23.433Z,528
2017-04-22T09:58:24.009Z,496
2017-04-22T09:59:24.584Z,492
2017-04-22T10:00:25.162Z,504
2017-04-22T10:01:25.737Z,536
2017-04-22T10:02:26.314Z,584
2017-04-22T10:03:26.889Z,652
2017-04-22T10:04:27.463Z,740
2017-04-22T10:05:28.041Z,816
2017-04-22T10:06:28.617Z,828
2017-04-22T10:07:29.194Z,828
2017-04-22T10:08:29.781Z,828
2017-04-22T10:09:30.355Z,852
2017-04-22T10:10:30.931Z,828
2017-04-22T10:11:31.506Z,808
2017-04-22T10:12:32.082Z,896
2017-04-22T10:13:32.659Z,704
2017-04-22T10:14:33.235Z,812
2017-04-22T10:15:33.811Z,684
2017-04-22T10:16:34.386Z,936
2017-04-22T10:17:34.961Z,988
2017-04-22T10:18:35.537Z,976
2017-04-22T10:19:36.112Z,968
2017-04-22T10:20:36.689Z,980
2017-04-22T10:21:37.264Z,988
2017-04-22T10:22:37.853Z,1000
2017-04-22T10:23:38.430Z,1020
2017-04-22T10:24:39.005Z,1048
2017-04-22T10:25:39.595Z,1092
2017-04-22T10:26:40.172Z,1180
2017-04-22T10:27:40.751Z,1264
2017-04-22T10:28:41.328Z,1276
2017-04-22T10:29:41.903Z,1264
2017-04-22T10:30:42.479Z,1264
2017-04-22T10:31:43.055Z,1056
2017-04-22T10:32:43.634Z,1104
2017-04-22T10:33:44.212Z,1280
2017-04-22T10:34:44.787Z,1380
2017-04-22T10:35:45.378Z,1520
2017-04-22T10:36:45.955Z,1640
2017-04-22T10:37:46.534Z,1640
2017-04-22T10:38:47.114Z,1492
2017-04-22T10:39:47.691Z,1044
2017-04-22T10:40:48.270Z,1004
2017-04-22T10:41:48.849Z,988
2017-04-22T10:42:49.426Z,1012
2017-04-22T10:43:50.016Z,1024
2017-04-22T10:44:50.607Z,1012
2017-04-22T10:45:51.184Z,972
2017-04-22T10:46:51.761Z,928
2017-04-22T10:47:52.338Z,920
2017-04-22T10:48:52.924Z,924
2017-04-22T10:49:53.501Z,864
2017-04-22T10:50:54.077Z,760
2017-04-22T10:51:54.655Z,652
2017-04-22T10:52:55.230Z,548
2017-04-22T10:53:55.805Z,520
2017-04-22T10:54:56.382Z,564
2017-04-22T10:55:56.957Z,660
2017-04-22T10:56:57.535Z,712
2017-04-22T10:57:58.109Z,724
2017-04-22T10:58:58.686Z,744
2017-04-22T10:59:59.261Z,808
2017-04-22T11:00:59.836Z,888
2017-04-22T11:02:00.413Z,956
2017-04-22T11:03:00.990Z,1092
2017-04-22T11:04:01.569Z,1048
2017-04-22T11:05:02.143Z,1036
2017-04-22T11:06:02.724Z,1488
2017-04-22T11:07:03.296Z,896
2017-04-22T11:08:03.872Z,792
2017-04-22T11:09:04.448Z,692
2017-04-22T11:10:05.040Z,604
2017-04-22T11:11:05.769Z,544
2017-04-22T11:12:06.347Z,500
2017-04-22T11:13:06.922Z,468
2017-04-22T11:14:07.500Z,480
2017-04-22T11:15:08.075Z,524
2017-04-22T11:16:08.650Z,568
2017-04-22T11:17:09.227Z,656
2017-04-22T11:18:09.803Z,696
2017-04-22T11:19:10.381Z,712
2017-04-22T11:20:10.954Z,728
2017-04-22T11:21:11.529Z,740
2017-04-22T11:22:12.102Z,684
2017-04-22T11:23:12.678Z,608
2017-04-22T11:24:13.256Z,568
2017-04-22T11:25:13.830Z,564
2017-04-22T11:26:14.409Z,1076
2017-04-22T11:27:14.984Z,1112
2017-04-22T11:28:15.563Z,1156
2017-04-22T11:29:16.142Z,1260
2017-04-22T11:30:16.719Z,1416
2017-04-22T11:31:17.296Z,1508
2017-04-22T11:32:17.877Z,1512
2017-04-22T11:33:18.452Z,908
2017-04-22T11:34:19.028Z,740
2017-04-22T11:35:19.605Z,640
2017-04-22T11:36:20.181Z,592
2017-04-22T11:37:20.759Z,576
2017-04-22T11:38:21.334Z,560
2017-04-22T11:39:21.910Z,580
2017-04-22T11:40:22.487Z,648
2017-04-22T11:41:23.067Z,728
2017-04-22T11:42:23.642Z,800
2017-04-22T11:43:24.217Z,824
2017-04-22T11:44:24.793Z,784
2017-04-22T11:45:25.372Z,1068
2017-04-22T11:46:25.948Z,1196
2017-04-22T11:47:26.527Z,1232
2017-04-22T11:48:27.106Z,1300
2017-04-22T11:49:27.686Z,1412
2017-04-22T11:50:28.263Z,1488
2017-04-22T11:51:28.840Z,1544
2017-04-22T11:52:29.418Z,1588
2017-04-22T11:53:29.998Z,1584
2017-04-22T11:54:30.576Z,1552
2017-04-22T11:55:31.152Z,1476
2017-04-22T11:56:31.730Z,1428
2017-04-22T11:57:32.307Z,924
2017-04-22T11:58:32.885Z,1000
2017-04-22T11:59:33.463Z,1044
2017-04-22T12:00:34.041Z,1184
2017-04-22T12:01:34.620Z,1124
2017-04-22T12:02:35.196Z,1116
2017-04-22T12:03:35.775Z,1112
2017-04-22T12:04:36.355Z,1148
2017-04-22T12:05:36.933Z,1124
2017-04-22T12:06:37.516Z,1308
2017-04-22T12:07:38.089Z,1088
2017-04-22T12:08:38.668Z,1088
2017-04-22T12:09:39.248Z,1096
2017-04-22T12:10:39.825Z,1152
2017-04-22T12:11:40.407Z,988
2017-04-22T12:12:40.981Z,920
2017-04-22T12:13:41.558Z,884
2017-04-22T12:14:42.136Z,876
2017-04-22T12:15:42.714Z,920
2017-04-22T12:16:43.293Z,984
2017-04-22T12:17:43.874Z,1008
2017-04-22T12:18:44.466Z,1036
2017-04-22T12:19:45.043Z,1124
2017-04-22T12:20:45.622Z,1172
2017-04-22T12:21:46.211Z,1012
2017-04-22T12:22:46.790Z,940
2017-04-22T12:23:47.367Z,860
2017-04-22T12:24:47.944Z,884
2017-04-22T12:25:48.520Z,940
2017-04-22T12:26:49.098Z,1000
2017-04-22T12:27:49.678Z,1068
2017-04-22T12:28:50.256Z,1112
2017-04-22T12:29:50.848Z,1128
2017-04-22T12:30:51.426Z,1176
2017-04-22T12:31:52.007Z,1192
2017-04-22T12:32:52.584Z,1140
2017-04-22T12:33:53.163Z,1160
2017-04-22T12:34:53.741Z,1256
2017-04-22T12:35:54.332Z,1452
2017-04-22T12:36:54.910Z,1468
2017-04-22T12:37:55.490Z,1232
2017-04-22T12:38:56.067Z,1168
2017-04-22T12:39:56.643Z,1104
2017-04-22T12:40:57.223Z,1040
2017-04-22T12:41:57.801Z,1000
2017-04-22T12:42:58.379Z,984
2017-04-22T12:43:58.956Z,960
2017-04-22T12:44:59.535Z,964
2017-04-22T12:46:00.114Z,1000
2017-04-22T12:47:00.700Z,1040
2017-04-22T12:48:01.271Z,1060
2017-04-22T12:49:01.850Z,1100
2017-04-22T12:50:02.428Z,1128
2017-04-22T12:51:03.005Z,1124
2017-04-22T12:52:03.586Z,1132
2017-04-22T12:53:04.177Z,1136
2017-04-22T12:54:04.755Z,1108
2017-04-22T12:55:05.346Z,1044
2017-04-22T12:56:05.925Z,956
2017-04-22T12:57:06.501Z,928
2017-04-22T12:58:07.078Z,940
2017-04-22T12:59:07.657Z,952
2017-04-22T13:00:08.234Z,980
2017-04-22T13:01:08.810Z,996
2017-04-22T13:02:09.389Z,1016
2017-04-22T13:03:09.965Z,988
2017-04-22T13:04:10.544Z,1028
2017-04-22T13:05:11.124Z,1064
2017-04-22T13:06:11.701Z,1052
2017-04-22T13:07:12.281Z,1016
2017-04-22T13:08:12.857Z,968
2017-04-22T13:09:13.437Z,980
2017-04-22T13:10:14.012Z,992
2017-04-22T13:11:14.591Z,1024
2017-04-22T13:12:15.171Z,1040
2017-04-22T13:13:15.752Z,1060
2017-04-22T13:14:16.328Z,1072
2017-04-22T13:15:16.909Z,1096
2017-04-22T13:16:17.485Z,1168
2017-04-22T13:17:18.061Z,1256
2017-04-22T13:18:18.641Z,1848
2017-04-22T13:19:19.220Z,1392
2017-04-22T13:20:19.817Z,1340
2017-04-22T13:21:20.394Z,1816
2017-04-22T13:22:20.973Z,1724
2017-04-22T13:23:21.550Z,1880
2017-04-22T13:24:22.128Z,1444
2017-04-22T13:25:22.706Z,1196
2017-04-22T13:26:23.285Z,1076
2017-04-22T13:27:23.864Z,976
2017-04-22T13:28:24.441Z,888
2017-04-22T13:29:25.018Z,856
2017-04-22T13:30:25.596Z,848
2017-04-22T13:31:26.196Z,832
2017-04-22T13:32:26.766Z,848
2017-04-22T13:33:27.344Z,868
2017-04-22T13:34:27.920Z,876
2017-04-22T13:35:28.497Z,872
2017-04-22T13:36:29.076Z,852
2017-04-22T13:37:29.668Z,852
2017-04-22T13:38:30.245Z,828
2017-04-22T13:39:30.850Z,828
2017-04-22T13:40:31.425Z,832
2017-04-22T13:41:32.005Z,848
2017-04-22T13:42:32.580Z,868
2017-04-22T13:43:33.159Z,892
2017-04-22T13:44:33.734Z,920
2017-04-22T13:45:34.325Z,968
2017-04-22T13:46:34.901Z,1024
2017-04-22T13:47:35.484Z,1096
2017-04-22T13:48:36.059Z,1160
2017-04-22T13:49:36.638Z,1200
2017-04-22T13:50:37.215Z,1216
2017-04-22T13:51:37.793Z,1204
2017-04-22T13:52:38.374Z,1256
2017-04-22T13:53:38.953Z,1896
2017-04-22T13:54:39.531Z,1900
2017-04-22T13:55:40.129Z,1840
2017-04-22T13:56:40.707Z,1764
2017-04-22T13:57:41.284Z,996
2017-04-22T13:58:41.861Z,856
2017-04-22T13:59:42.440Z,744
2017-04-22T14:00:43.020Z,636
2017-04-22T14:01:43.595Z,552
2017-04-22T14:02:44.171Z,544
2017-04-22T14:03:44.750Z,524
2017-04-22T14:04:45.328Z,504
2017-04-22T14:05:45.905Z,480
2017-04-22T14:06:46.482Z,452
2017-04-22T14:07:47.060Z,420
2017-04-22T14:08:47.637Z,396